createdAt,value
2019-04-30T00:01:37.642Z,100538.84
2019-04-30T00:04:15.743Z,100537.06
2019-04-30T00:06:46.500Z,100531.69
2019-04-30T00:09:19.274Z,100536.63
2019-04-30T00:11:50.540Z,100525.25
2019-04-30T00:14:22.988Z,100523.84
2019-04-30T00:16:55.097Z,100526.45
2019-04-30T00:19:28.538Z,100525.91
2019-04-30T00:22:00.468Z,100520.05
2019-04-30T00:24:35.500Z,100521.81
2019-04-30T00:27:06.297Z,100512.73
2019-04-30T00:29:36.609Z,100513.81
2019-04-30T00:32:07.930Z,100516.90
2019-04-30T00:34:39.482Z,100514.31
2019-04-30T00:37:14.279Z,100514.78
2019-04-30T00:39:51.183Z,100512.75
2019-04-30T00:42:24.391Z,100512.75
2019-04-30T00:44:59.331Z,100509.23
2019-04-30T00:47:27.424Z,100512.92
2019-04-30T00:50:00.268Z,100510.49
2019-04-30T00:52:33.991Z,100512.70
2019-04-30T00:55:05.562Z,100508.53
2019-04-30T00:57:38.850Z,100512.87
2019-04-30T01:00:10.788Z,100506.67
2019-04-30T01:03:00.798Z,100511.64
2019-04-30T01:05:35.351Z,100510.95
2019-04-30T01:08:07.089Z,100508.78
2019-04-30T01:10:37.647Z,100503.43
2019-04-30T01:13:11.805Z,100506.07
2019-04-30T01:15:43.945Z,100499.16
2019-04-30T01:18:12.472Z,100505.30
2019-04-30T01:20:44.998Z,100499.84
2019-04-30T01:23:19.389Z,100508.48
2019-04-30T01:25:51.401Z,100506.22
2019-04-30T01:28:24.472Z,100503.70
2019-04-30T01:30:58.745Z,100500.63
2019-04-30T01:33:28.476Z,100498.39
2019-04-30T01:35:59.704Z,100495.25
2019-04-30T01:38:30.567Z,100497.30
2019-04-30T01:41:00.934Z,100502.20
2019-04-30T01:43:34.739Z,100501.37
2019-04-30T01:46:09.378Z,100498.47
2019-04-30T01:48:39.189Z,100498.88
2019-04-30T01:51:09.227Z,100496.70
2019-04-30T01:53:43.597Z,100496.09
2019-04-30T01:56:21.848Z,100497.90
2019-04-30T01:58:56.151Z,100499.41
2019-04-30T02:01:30.960Z,100498.92
2019-04-30T02:04:02.432Z,100500.59
2019-04-30T02:06:34.618Z,100508.79
2019-04-30T02:09:06.139Z,100511.59
2019-04-30T02:11:38.733Z,100513.89
2019-04-30T02:14:09.077Z,100514.69
2019-04-30T02:16:39.671Z,100516.03
2019-04-30T02:19:10.348Z,100517.77
2019-04-30T02:21:42.303Z,100513.44
2019-04-30T02:24:14.349Z,100516.35
2019-04-30T02:26:48.528Z,100516.59
2019-04-30T02:29:19.201Z,100523.10
2019-04-30T02:31:50.419Z,100516.44
2019-04-30T02:34:30.971Z,100520.59
2019-04-30T02:37:09.717Z,100521.00
2019-04-30T02:39:40.529Z,100518.06
2019-04-30T02:42:13.669Z,100518.39
2019-04-30T02:44:46.211Z,100518.09
2019-04-30T02:47:20.278Z,100519.39
2019-04-30T02:50:10.259Z,100517.14
2019-04-30T02:52:29.412Z,100520.04
2019-04-30T02:55:03.797Z,100523.17
2019-04-30T02:57:36.829Z,100522.67
2019-04-30T03:00:15.333Z,100523.45
2019-04-30T03:02:45.684Z,100519.14
2019-04-30T03:05:16.026Z,100519.31
2019-04-30T03:07:46.781Z,100514.97
2019-04-30T03:10:19.692Z,100513.64
2019-04-30T03:12:49.968Z,100513.95
2019-04-30T03:15:22.836Z,100517.29
2019-04-30T03:18:10.003Z,100518.08
2019-04-30T03:20:51.312Z,100517.22
2019-04-30T03:23:22.076Z,100519.33
2019-04-30T03:25:52.593Z,100519.39
2019-04-30T03:28:23.321Z,100522.91
2019-04-30T03:30:57.986Z,100525.26
2019-04-30T03:33:25.860Z,100524.30
2019-04-30T03:35:56.480Z,100523.52
2019-04-30T03:38:26.746Z,100528.25
2019-04-30T03:40:59.977Z,100524.84
2019-04-30T03:43:30.159Z,100523.67
2019-04-30T03:46:02.823Z,100528.59
2019-04-30T03:48:33.596Z,100526.15
2019-04-30T03:51:06.482Z,100528.98
2019-04-30T03:53:39.715Z,100542.77
2019-04-30T03:56:09.471Z,100542.07
2019-04-30T03:58:40.507Z,100543.25
2019-04-30T04:01:19.455Z,100537.30
2019-04-30T04:04:26.698Z,100537.48
2019-04-30T04:07:15.337Z,100546.65
2019-04-30T04:09:53.596Z,100556.59
2019-04-30T04:12:25.057Z,100556.38
2019-04-30T04:14:55.647Z,100556.78
2019-04-30T04:17:25.853Z,100553.41
2019-04-30T04:19:59.564Z,100556.73
2019-04-30T04:22:36.178Z,100561.14
2019-04-30T04:25:12.728Z,100558.79
2019-04-30T04:27:39.540Z,100564.64
2019-04-30T04:30:11.952Z,100567.24
2019-04-30T04:32:42.358Z,100566.63
2019-04-30T04:35:13.204Z,100561.84
2019-04-30T04:37:44.075Z,100569.16
2019-04-30T04:40:14.741Z,100570.75
2019-04-30T04:42:45.407Z,100568.85
2019-04-30T04:45:15.728Z,100575.37
2019-04-30T04:47:46.045Z,100577.50
2019-04-30T04:50:16.547Z,100574.06
2019-04-30T04:52:49.466Z,100575.01
2019-04-30T04:55:21.836Z,100573.11
2019-04-30T04:57:51.518Z,100575.63
2019-04-30T05:00:22.842Z,100577.29
2019-04-30T05:03:14.291Z,100573.88
2019-04-30T05:05:44.697Z,100568.80
2019-04-30T05:08:15.252Z,100570.27
2019-04-30T05:10:46.331Z,100561.64
2019-04-30T05:13:16.709Z,100573.59
2019-04-30T05:15:51.245Z,100567.73
2019-04-30T05:18:19.251Z,100565.17
2019-04-30T05:20:52.303Z,100562.53
2019-04-30T05:23:25.771Z,100566.22
2019-04-30T05:25:56.165Z,100564.60
2019-04-30T05:28:26.814Z,100562.70
2019-04-30T05:30:59.231Z,100566.45
2019-04-30T05:33:29.339Z,100571.12
2019-04-30T05:35:59.779Z,100570.78
2019-04-30T05:38:31.874Z,100565.01
2019-04-30T05:41:02.461Z,100566.33
2019-04-30T05:43:33.228Z,100564.23
2019-04-30T05:46:03.988Z,100564.77
2019-04-30T05:48:39.590Z,100567.41
2019-04-30T05:51:09.549Z,100567.87
2019-04-30T05:53:41.727Z,100562.56
2019-04-30T05:56:14.027Z,100567.11
2019-04-30T05:58:44.738Z,100575.11
2019-04-30T06:01:15.832Z,100582.89
2019-04-30T06:03:48.318Z,100586.28
2019-04-30T06:06:19.383Z,100586.95
2019-04-30T06:09:04.635Z,100589.00
2019-04-30T06:11:52.811Z,100587.48
2019-04-30T06:14:32.179Z,100591.12
2019-04-30T06:17:06.112Z,100592.28
2019-04-30T06:19:36.739Z,100591.85
2019-04-30T06:22:08.654Z,100593.80
2019-04-30T06:24:39.648Z,100591.80
2019-04-30T06:27:10.994Z,100589.33
2019-04-30T06:29:42.249Z,100597.99
2019-04-30T06:32:12.597Z,100607.80
2019-04-30T06:34:45.136Z,100611.69
2019-04-30T06:37:15.529Z,100607.86
2019-04-30T06:39:52.033Z,100609.46
2019-04-30T06:42:23.088Z,100597.97
2019-04-30T06:44:54.092Z,100606.33
2019-04-30T06:47:32.785Z,100610.56
2019-04-30T06:49:58.753Z,100609.09
2019-04-30T06:52:29.524Z,100604.59
2019-04-30T06:55:00.028Z,100602.50
2019-04-30T06:57:30.366Z,100603.39
2019-04-30T07:00:03.023Z,100604.33
2019-04-30T07:02:36.617Z,100599.03
2019-04-30T07:05:09.954Z,100604.87
2019-04-30T07:07:42.532Z,100601.05
2019-04-30T07:10:26.627Z,100610.31
2019-04-30T07:13:16.003Z,100602.19
2019-04-30T07:15:59.003Z,100598.41
2019-04-30T07:18:29.280Z,100599.07
2019-04-30T07:20:59.633Z,100601.44
2019-04-30T07:23:29.923Z,100607.66
2019-04-30T07:26:00.298Z,100607.88
2019-04-30T07:31:11.782Z,100608.23
2019-04-30T07:33:35.105Z,100612.16
2019-04-30T07:36:05.693Z,100612.98
2019-04-30T07:38:45.749Z,100612.61
2019-04-30T07:41:09.585Z,100613.91
2019-04-30T07:43:40.217Z,100611.03
2019-04-30T07:46:10.601Z,100611.72
2019-04-30T07:48:41.013Z,100617.07
2019-04-30T07:51:11.925Z,100614.45
2019-04-30T07:53:42.945Z,100616.98
2019-04-30T07:56:25.578Z,100610.41
2019-04-30T07:58:46.660Z,100613.34
2019-04-30T08:01:19.575Z,100616.64
2019-04-30T08:03:56.393Z,100617.08
2019-04-30T08:06:30.652Z,100609.76
2019-04-30T08:09:00.854Z,100607.19
2019-04-30T08:09:34.156Z,100609.79
2019-04-30T08:11:34.429Z,100611.23
2019-04-30T08:14:03.954Z,100607.13
2019-04-30T08:16:41.769Z,100610.06
2019-04-30T08:19:12.379Z,100612.41
2019-04-30T08:21:43.175Z,100615.63
2019-04-30T08:24:13.562Z,100610.08
2019-04-30T08:26:44.007Z,100610.88
2019-04-30T08:29:14.277Z,100612.08
2019-04-30T08:31:44.772Z,100607.02
2019-04-30T08:34:15.110Z,100609.50
2019-04-30T08:36:45.421Z,100599.56
2019-04-30T08:39:15.732Z,100601.75
2019-04-30T08:41:46.035Z,100605.14
2019-04-30T08:44:16.380Z,100603.53
2019-04-30T08:46:49.075Z,100603.38
2019-04-30T08:49:19.605Z,100595.48
2019-04-30T08:52:01.216Z,100604.52
2019-04-30T08:54:34.591Z,100598.80
2019-04-30T08:57:04.453Z,100606.98
2019-04-30T08:59:36.035Z,100605.73
2019-04-30T09:02:15.355Z,100605.64
2019-04-30T09:04:39.041Z,100608.14
2019-04-30T09:07:10.628Z,100607.97
2019-04-30T09:09:44.389Z,100610.47
2019-04-30T09:12:13.276Z,100610.24
2019-04-30T09:14:44.168Z,100605.84
2019-04-30T09:17:14.885Z,100602.22
2019-04-30T09:19:45.509Z,100596.06
2019-04-30T09:22:15.838Z,100594.81
2019-04-30T09:24:46.313Z,100589.42
2019-04-30T09:27:16.637Z,100589.78
2019-04-30T09:29:49.504Z,100585.31
2019-04-30T09:32:19.902Z,100585.61
2019-04-30T09:34:50.249Z,100585.72
2019-04-30T09:37:26.059Z,100581.91
2019-04-30T09:39:59.109Z,100585.52
2019-04-30T09:42:31.640Z,100580.00
2019-04-30T09:45:02.311Z,100582.50
2019-04-30T09:47:32.566Z,100589.23
2019-04-30T09:50:03.183Z,100585.33
2019-04-30T09:52:35.914Z,100585.31
2019-04-30T09:55:06.316Z,100588.02
2019-04-30T09:57:38.894Z,100587.09
2019-04-30T10:00:10.331Z,100587.78
2019-04-30T10:02:40.616Z,100571.84
2019-04-30T10:05:12.765Z,100575.23
2019-04-30T10:07:43.809Z,100573.52
2019-04-30T10:10:18.845Z,100567.38
2019-04-30T10:12:49.381Z,100562.79
2019-04-30T10:15:32.586Z,100560.19
2019-04-30T10:18:05.248Z,100570.17
2019-04-30T10:20:44.177Z,100569.83
2019-04-30T10:23:16.256Z,100562.24
2019-04-30T10:25:46.583Z,100556.73
2019-04-30T10:28:17.015Z,100556.34
2019-04-30T10:30:48.495Z,100549.25
2019-04-30T10:33:19.608Z,100539.68
2019-04-30T10:35:50.973Z,100543.80
2019-04-30T10:38:21.626Z,100544.77
2019-04-30T10:40:52.087Z,100532.67
2019-04-30T10:43:22.813Z,100530.97
2019-04-30T10:45:53.146Z,100533.06
2019-04-30T10:48:23.447Z,100525.05
2019-04-30T10:50:55.105Z,100537.71
2019-04-30T10:53:25.773Z,100536.40
2019-04-30T10:55:56.386Z,100537.28
2019-04-30T10:58:27.072Z,100533.94
2019-04-30T11:01:01.982Z,100538.06
2019-04-30T11:03:32.475Z,100539.98
2019-04-30T11:06:02.836Z,100546.19
2019-04-30T11:08:34.500Z,100546.30
2019-04-30T11:11:06.617Z,100537.69
2019-04-30T11:13:37.184Z,100541.46
2019-04-30T11:16:15.168Z,100537.79
2019-04-30T11:18:40.109Z,100532.56
2019-04-30T11:21:10.952Z,100536.95
2019-04-30T11:23:41.746Z,100532.68
2019-04-30T11:26:12.903Z,100519.28
2019-04-30T11:28:44.192Z,100512.76
2019-04-30T11:31:42.202Z,100509.72
2019-04-30T11:34:12.719Z,100504.85
2019-04-30T11:36:42.996Z,100503.55
2019-04-30T11:39:19.588Z,100494.85
2019-04-30T11:41:50.671Z,100493.86
2019-04-30T11:44:30.295Z,100497.05
2019-04-30T11:47:19.440Z,100496.67
2019-04-30T11:49:49.917Z,100508.98
2019-04-30T11:52:20.466Z,100503.03
2019-04-30T11:54:54.275Z,100503.80
2019-04-30T11:57:23.759Z,100500.55
2019-04-30T11:59:54.071Z,100495.55
2019-04-30T12:02:41.679Z,100486.78
2019-04-30T12:05:15.169Z,100481.70
2019-04-30T12:08:01.596Z,100486.17
2019-04-30T12:10:39.239Z,100487.70
2019-04-30T12:13:31.340Z,100480.83
2019-04-30T12:16:01.967Z,100474.98
2019-04-30T12:18:32.333Z,100475.03
2019-04-30T12:21:03.021Z,100475.23
2019-04-30T12:23:33.387Z,100480.05
2019-04-30T12:26:04.275Z,100468.91
2019-04-30T12:28:34.938Z,100474.89
2019-04-30T12:31:05.959Z,100468.48
2019-04-30T12:33:36.508Z,100459.92
2019-04-30T12:36:08.869Z,100468.16
2019-04-30T12:38:38.991Z,100461.42
2019-04-30T12:41:09.217Z,100459.78
2019-04-30T12:43:39.655Z,100459.95
2019-04-30T12:46:09.975Z,100462.50
2019-04-30T12:48:52.310Z,100452.42
2019-04-30T12:51:45.841Z,100446.23
2019-04-30T12:54:32.917Z,100442.50
2019-04-30T12:57:10.928Z,100443.70
2019-04-30T12:59:39.524Z,100456.94
2019-04-30T13:02:10.538Z,100450.70
2019-04-30T13:04:40.925Z,100444.48
2019-04-30T13:07:12.316Z,100429.84
2019-04-30T13:09:43.769Z,100429.83
2019-04-30T13:12:15.394Z,100427.70
2019-04-30T13:14:52.392Z,100429.22
2019-04-30T13:17:18.432Z,100422.36
2019-04-30T13:19:53.398Z,100418.28
2019-04-30T13:22:23.844Z,100408.48
2019-04-30T13:24:54.791Z,100409.45
2019-04-30T13:27:25.620Z,100400.78
2019-04-30T13:30:09.317Z,100407.92
2019-04-30T13:32:46.065Z,100403.47
2019-04-30T13:35:19.272Z,100397.46
2019-04-30T13:37:57.577Z,100394.66
2019-04-30T13:40:49.010Z,100393.20
2019-04-30T13:43:43.112Z,100392.04
2019-04-30T13:46:13.308Z,100390.38
2019-04-30T13:48:44.365Z,100388.95
2019-04-30T13:51:15.647Z,100386.45
2019-04-30T13:53:46.330Z,100389.37
2019-04-30T13:56:20.002Z,100376.41
2019-04-30T13:58:49.150Z,100376.16
2019-04-30T14:01:21.430Z,100370.41
2019-04-30T14:04:30.148Z,100378.17
2019-04-30T14:07:18.574Z,100375.72
2019-04-30T14:09:52.343Z,100374.39
2019-04-30T14:12:22.846Z,100377.39
2019-04-30T14:14:53.200Z,100367.56
2019-04-30T14:17:23.681Z,100372.79
2019-04-30T14:19:54.398Z,100368.27
2019-04-30T14:22:25.258Z,100365.86
2019-04-30T14:24:55.862Z,100369.59
2019-04-30T14:27:26.550Z,100361.65
2019-04-30T14:29:56.856Z,100367.62
2019-04-30T14:32:44.764Z,100360.25
2019-04-30T14:35:24.291Z,100361.28
2019-04-30T14:37:54.600Z,100347.66
2019-04-30T14:40:25.336Z,100352.84
2019-04-30T14:43:25.037Z,100345.41
2019-04-30T14:46:30.000Z,100348.61
2019-04-30T14:49:21.819Z,100347.19
2019-04-30T14:52:06.488Z,100346.31
2019-04-30T14:54:50.534Z,100349.67
2019-04-30T14:57:51.389Z,100350.71
2019-04-30T15:00:39.315Z,100338.04
2019-04-30T15:03:13.425Z,100336.67
2019-04-30T15:05:48.783Z,100338.46
2019-04-30T15:08:19.907Z,100333.56
2019-04-30T15:10:50.404Z,100337.92
2019-04-30T15:13:21.807Z,100334.23
2019-04-30T15:15:55.323Z,100337.45
2019-04-30T15:18:25.810Z,100333.34
2019-04-30T15:20:59.400Z,100329.87
2019-04-30T15:23:58.576Z,100327.67
2019-04-30T15:26:28.603Z,100327.65
2019-04-30T15:29:00.002Z,100325.50
2019-04-30T15:31:30.735Z,100316.94
2019-04-30T15:34:19.506Z,100322.20
2019-04-30T15:36:49.921Z,100315.25
2019-04-30T15:39:46.770Z,100320.59
2019-04-30T15:42:18.893Z,100325.80
2019-04-30T15:44:51.006Z,100325.55
2019-04-30T15:47:23.048Z,100328.75
2019-04-30T15:49:55.071Z,100329.05
2019-04-30T15:52:28.846Z,100322.45
2019-04-30T15:54:59.335Z,100329.41
2019-04-30T15:57:29.719Z,100331.18
2019-04-30T16:00:02.136Z,100327.24
2019-04-30T16:02:39.194Z,100326.80
2019-04-30T16:05:32.082Z,100327.98
2019-04-30T16:08:08.937Z,100324.76
2019-04-30T16:10:53.262Z,100325.09
2019-04-30T16:13:26.766Z,100323.03
2019-04-30T16:15:59.081Z,100325.81
2019-04-30T16:18:35.884Z,100317.04
2019-04-30T16:21:06.243Z,100320.33
2019-04-30T16:23:38.534Z,100318.66
2019-04-30T16:26:08.765Z,100315.55
2019-04-30T16:28:39.115Z,100319.60
2019-04-30T16:31:10.014Z,100316.32
2019-04-30T16:33:40.368Z,100315.11
2019-04-30T16:36:10.998Z,100313.42
2019-04-30T16:38:41.303Z,100311.00
2019-04-30T16:41:11.736Z,100310.04
2019-04-30T16:43:44.123Z,100309.75
2019-04-30T16:46:14.328Z,100300.59
2019-04-30T16:48:44.983Z,100301.34
2019-04-30T16:51:15.351Z,100302.03
2019-04-30T16:53:45.681Z,100302.97
2019-04-30T16:56:16.331Z,100301.95
2019-04-30T16:59:07.247Z,100303.12
2019-04-30T17:01:38.267Z,100304.31
2019-04-30T17:04:23.835Z,100301.92
2019-04-30T17:07:02.824Z,100298.45
2019-04-30T17:09:41.917Z,100302.34
2019-04-30T17:12:19.623Z,100296.23
2019-04-30T17:15:09.249Z,100293.67
2019-04-30T17:17:40.989Z,100298.16
2019-04-30T17:20:13.104Z,100298.13
2019-04-30T17:22:43.843Z,100293.39
2019-04-30T17:25:14.116Z,100295.08
2019-04-30T17:27:44.454Z,100303.91
2019-04-30T17:30:16.323Z,100302.96
2019-04-30T17:32:46.633Z,100303.63
2019-04-30T17:35:19.047Z,100298.92
2019-04-30T17:37:49.796Z,100299.88
2019-04-30T17:40:20.137Z,100295.76
2019-04-30T17:42:50.503Z,100293.91
2019-04-30T17:45:21.765Z,100292.41
2019-04-30T17:47:52.226Z,100297.44
2019-04-30T17:50:31.065Z,100288.42
2019-04-30T17:53:01.718Z,100293.31
2019-04-30T17:55:32.118Z,100288.02
2019-04-30T17:58:02.822Z,100291.30
2019-04-30T18:00:34.741Z,100294.30
2019-04-30T18:03:05.644Z,100293.61
2019-04-30T18:05:36.334Z,100289.36
2019-04-30T18:08:07.029Z,100295.83
2019-04-30T18:10:37.846Z,100292.00
2019-04-30T18:13:08.595Z,100296.93
2019-04-30T18:15:39.193Z,100291.55
2019-04-30T18:18:23.812Z,100290.27
2019-04-30T18:21:11.372Z,100292.62
2019-04-30T18:23:55.363Z,100294.66
2019-04-30T18:26:27.612Z,100294.91
2019-04-30T18:28:58.270Z,100298.08
2019-04-30T18:31:29.813Z,100294.69
2019-04-30T18:34:00.348Z,100293.67
2019-04-30T18:36:30.951Z,100296.36
2019-04-30T18:39:01.471Z,100294.28
2019-04-30T18:41:32.244Z,100295.88
2019-04-30T18:44:02.627Z,100295.64
2019-04-30T18:46:33.406Z,100296.38
2019-04-30T18:49:03.986Z,100297.06
2019-04-30T18:51:39.425Z,100296.48
2019-04-30T18:54:08.348Z,100299.20
2019-04-30T18:56:38.984Z,100302.38
2019-04-30T18:59:09.461Z,100300.20
2019-04-30T19:01:40.657Z,100307.09
2019-04-30T19:04:11.136Z,100307.31
2019-04-30T19:06:43.351Z,100309.19
2019-04-30T19:09:31.493Z,100308.83
2019-04-30T19:12:11.202Z,100311.81
2019-04-30T19:14:54.135Z,100315.34
2019-04-30T19:17:35.390Z,100320.48
2019-04-30T19:20:41.904Z,100323.72
2019-04-30T19:23:12.507Z,100320.00
2019-04-30T19:25:43.307Z,100321.59
2019-04-30T19:28:14.762Z,100327.84
2019-04-30T19:30:57.393Z,100318.66
2019-04-30T19:33:22.939Z,100325.59
2019-04-30T19:35:54.703Z,100324.72
2019-04-30T19:38:36.262Z,100325.95
2019-04-30T19:41:14.286Z,100326.16
2019-04-30T19:43:45.058Z,100319.22
2019-04-30T19:46:22.143Z,100328.77
2019-04-30T19:48:58.561Z,100328.20
2019-04-30T19:51:29.687Z,100325.55
2019-04-30T19:54:09.098Z,100326.96
2019-04-30T19:56:40.625Z,100330.48
2019-04-30T19:59:11.601Z,100328.62
2019-04-30T20:01:42.262Z,100329.00
2019-04-30T20:04:12.659Z,100323.13
2019-04-30T20:06:43.067Z,100330.59
2019-04-30T20:09:15.065Z,100328.80
2019-04-30T20:11:45.420Z,100326.78
2019-04-30T20:14:15.759Z,100330.68
2019-04-30T20:16:46.034Z,100329.80
2019-04-30T20:19:16.707Z,100337.66
2019-04-30T20:21:53.084Z,100338.37
2019-04-30T20:24:19.105Z,100335.78
2019-04-30T20:26:58.279Z,100331.13
2019-04-30T20:29:22.985Z,100333.91
2019-04-30T20:31:53.254Z,100329.05
2019-04-30T20:34:23.636Z,100339.63
2019-04-30T20:36:54.347Z,100335.17
2019-04-30T20:39:30.838Z,100332.53
2019-04-30T20:42:01.241Z,100336.45
2019-04-30T20:44:31.514Z,100329.58
2019-04-30T20:47:02.151Z,100331.78
2019-04-30T20:49:32.408Z,100335.78
2019-04-30T20:52:02.764Z,100331.60
2019-04-30T20:54:33.206Z,100336.82
2019-04-30T20:57:03.533Z,100334.10
2019-04-30T20:59:34.210Z,100331.39
2019-04-30T21:02:10.383Z,100333.50
2019-04-30T21:04:56.915Z,100329.47
2019-04-30T21:07:30.599Z,100332.81
2019-04-30T21:10:10.176Z,100332.07
2019-04-30T21:12:46.929Z,100336.69
2019-04-30T21:15:39.624Z,100336.11
2019-04-30T21:18:09.539Z,100335.27
2019-04-30T21:20:40.118Z,100329.63
2019-04-30T21:23:10.482Z,100331.67
2019-04-30T21:25:41.221Z,100332.45
2019-04-30T21:28:11.651Z,100328.52
2019-04-30T21:30:42.034Z,100336.27
2019-04-30T21:33:26.477Z,100335.86
2019-04-30T21:36:01.022Z,100329.34
2019-04-30T21:38:31.422Z,100334.39
2019-04-30T21:41:01.771Z,100337.36
2019-04-30T21:43:32.149Z,100333.48
2019-04-30T21:46:02.497Z,100330.70
2019-04-30T21:48:35.995Z,100334.38
2019-04-30T21:51:06.417Z,100333.98
2019-04-30T21:53:39.368Z,100328.80
2019-04-30T21:56:09.384Z,100330.77
2019-04-30T21:58:39.965Z,100332.70
2019-04-30T22:01:18.341Z,100329.08
2019-04-30T22:03:48.767Z,100324.31
2019-04-30T22:06:19.563Z,100319.56
2019-04-30T22:08:50.158Z,100322.44
2019-04-30T22:11:20.571Z,100322.48
2019-04-30T22:13:50.983Z,100318.23
2019-04-30T22:16:21.352Z,100315.94
2019-04-30T22:18:53.520Z,100317.16
2019-04-30T22:21:24.115Z,100316.67
2019-04-30T22:23:54.653Z,100316.56
2019-04-30T22:26:25.095Z,100314.42
2019-04-30T22:28:55.520Z,100314.55
2019-04-30T22:31:25.777Z,100314.66
2019-04-30T22:33:56.164Z,100315.59
2019-04-30T22:36:48.921Z,100309.28
2019-04-30T22:39:39.534Z,100308.97
2019-04-30T22:42:37.123Z,100310.75
2019-04-30T22:45:20.719Z,100310.83
2019-04-30T22:47:50.986Z,100302.13
2019-04-30T22:50:21.426Z,100310.90
2019-04-30T22:52:51.704Z,100309.87
2019-04-30T22:55:22.042Z,100308.20
2019-04-30T22:57:52.600Z,100303.61
2019-04-30T23:00:34.035Z,100307.11
2019-04-30T23:03:07.818Z,100308.45
2019-04-30T23:05:38.136Z,100301.77
2019-04-30T23:08:08.488Z,100297.63
2019-04-30T23:10:41.634Z,100301.01
2019-04-30T23:13:12.122Z,100303.14
2019-04-30T23:15:42.800Z,100302.51
2019-04-30T23:18:13.141Z,100296.44
2019-04-30T23:20:43.497Z,100304.05
2019-04-30T23:23:13.835Z,100306.11
2019-04-30T23:25:44.091Z,100305.92
2019-04-30T23:28:14.443Z,100300.84
2019-04-30T23:30:46.736Z,100297.05
2019-04-30T23:33:17.088Z,100291.41
2019-04-30T23:35:47.332Z,100286.13
2019-04-30T23:38:17.854Z,100286.77
2019-04-30T23:40:52.809Z,100289.22
2019-04-30T23:43:23.217Z,100278.08
2019-04-30T23:45:53.519Z,100282.25
2019-04-30T23:48:24.096Z,100283.75
2019-04-30T23:50:54.799Z,100277.80
2019-04-30T23:53:25.504Z,100276.61
2019-04-30T23:55:57.123Z,100274.39
2019-04-30T23:58:27.482Z,100261.20
